Time;durP1;ratioP1;P1;durP2;ratioP2;P2;SDS_P1;SDS_P2;PMS_P1;PMS_P2;Temp;Humidity;BMP_temperature;BMP_pressure;BME280_temperature;BME280_humidity;BME280_pressure;Samples;Min_cycle;Max_cycle;Signal;HPM_P1;HPM_P2
2022/01/11 00:00:35;;;;;;;82.30;40.50;;;;;;;-4.14;73.78;101639.48;107417;1274;96752;-66
2022/01/11 00:03:27;;;;;;;77.20;39.70;;;;;;;-4.18;74.14;101639.63;107419;1274;138842;-67
2022/01/11 00:06:06;;;;;;;75.70;38.80;;;;;;;-4.19;74.31;101639.73;107555;1274;112547;-67
2022/01/11 00:08:40;;;;;;;70.20;37.30;;;;;;;-4.19;74.25;101640.42;107445;1274;139381;-67
2022/01/11 00:11:12;;;;;;;75.70;38.10;;;;;;;-4.18;74.33;101645.58;107540;1274;108050;-67
2022/01/11 00:13:44;;;;;;;74.80;38.50;;;;;;;-4.17;74.22;101645.94;107510;1274;138564;-67
2022/01/11 00:16:16;;;;;;;75.30;37.50;;;;;;;-4.17;74.42;101644.94;107569;1274;96190;-67
2022/01/11 00:18:48;;;;;;;73.70;38.30;;;;;;;-4.14;74.55;101645.58;107639;1274;112540;-68
2022/01/11 00:21:21;;;;;;;76.00;37.40;;;;;;;-4.13;74.64;101643.30;107424;1274;138612;-67
2022/01/11 00:26:42;;;;;;;77.70;37.70;;;;;;;-4.14;74.25;101644.39;105926;1274;138450;-67
2022/01/11 00:29:14;;;;;;;76.30;38.90;;;;;;;-4.16;74.62;101648.91;105536;1272;97720;-67
2022/01/11 00:31:48;;;;;;;70.90;37.50;;;;;;;-4.15;74.52;101650.96;105845;1274;138521;-67
2022/01/11 00:34:22;;;;;;;75.00;37.80;;;;;;;-4.19;74.54;101648.23;105929;1275;108867;-68
2022/01/11 00:36:54;;;;;;;63.60;36.50;;;;;;;-4.23;74.87;101651.41;105848;1276;108795;-67
2022/01/11 00:39:26;;;;;;;67.00;34.20;;;;;;;-4.26;74.61;101653.02;105880;1274;139713;-68
2022/01/11 00:41:58;;;;;;;68.10;34.70;;;;;;;-4.28;74.87;101651.88;106016;1274;97852;-67
2022/01/11 00:44:31;;;;;;;68.30;34.00;;;;;;;-4.28;74.91;101658.00;105923;1274;138624;-66
2022/01/11 00:47:03;;;;;;;62.50;33.70;;;;;;;-4.24;74.89;101657.34;106091;1274;108919;-67
2022/01/11 00:49:35;;;;;;;64.60;34.50;;;;;;;-4.21;75.26;101656.13;107496;1274;138572;-67
2022/01/11 00:52:09;;;;;;;66.50;34.20;;;;;;;-4.20;74.83;101653.77;107432;1276;96195;-67
2022/01/11 00:54:41;;;;;;;65.40;35.10;;;;;;;-4.17;75.17;101658.03;106462;1274;97828;-67
2022/01/11 00:57:13;;;;;;;65.40;35.60;;;;;;;-4.14;75.03;101660.54;105858;1276;139731;-68
2022/01/11 00:59:45;;;;;;;68.70;36.20;;;;;;;-4.14;74.99;101663.08;106024;1274;108864;-67
2022/01/11 01:02:18;;;;;;;67.40;34.90;;;;;;;-4.17;75.15;101658.85;105924;1274;138160;-69
2022/01/11 01:04:51;;;;;;;64.10;34.60;;;;;;;-4.15;75.01;101659.44;105983;1274;97787;-69
2022/01/11 01:07:23;;;;;;;65.10;33.70;;;;;;;-4.19;74.87;101658.23;105913;1274;138191;-66
2022/01/11 01:10:01;;;;;;;66.80;35.20;;;;;;;-4.27;74.87;101657.89;105840;1276;112534;-70
2022/01/11 01:12:36;;;;;;;63.20;34.20;;;;;;;-4.33;74.64;101652.15;105911;1274;108696;-67
2022/01/11 01:15:10;;;;;;;64.20;34.10;;;;;;;-4.36;74.88;101654.89;105718;1275;139227;-66
2022/01/11 01:17:43;;;;;;;62.50;32.10;;;;;;;-4.39;75.03;101649.97;107264;1276;96206;-68
2022/01/11 01:20:16;;;;;;;62.40;33.20;;;;;;;-4.41;74.85;101650.90;105773;1274;139412;-65
2022/01/11 01:22:50;;;;;;;64.00;33.00;;;;;;;-4.42;75.18;101654.07;105939;1275;112488;-67
2022/01/11 01:25:24;;;;;;;62.20;33.20;;;;;;;-4.43;75.07;101654.19;105919;1276;139749;-66
2022/01/11 01:27:56;;;;;;;67.60;34.40;;;;;;;-4.43;75.32;101663.68;105930;1275;108738;-66
2022/01/11 01:30:28;;;;;;;63.30;33.10;;;;;;;-4.44;75.59;101662.26;106042;1275;97836;-66
2022/01/11 01:33:00;;;;;;;68.50;35.00;;;;;;;-4.48;75.32;101665.14;106007;1275;139889;-68
2022/01/11 01:35:39;;;;;;;68.70;35.50;;;;;;;-4.49;75.47;101666.91;105917;1274;112427;-67
2022/01/11 01:38:12;;;;;;;68.60;35.80;;;;;;;-4.51;75.42;101670.21;105965;1275;138285;-66
2022/01/11 01:40:46;;;;;;;66.40;34.40;;;;;;;-4.53;75.55;101673.35;105596;1276;107888;-67
2022/01/11 01:43:18;;;;;;;65.00;33.70;;;;;;;-4.57;75.37;101673.65;105756;1276;139512;-67
2022/01/11 01:45:52;;;;;;;66.00;34.00;;;;;;;-4.61;75.72;101679.20;106006;1274;97848;-67
2022/01/11 01:48:24;;;;;;;65.20;34.60;;;;;;;-4.63;75.66;101678.94;107288;1276;112079;-67
2022/01/11 01:50:56;;;;;;;66.30;33.80;;;;;;;-4.66;75.78;101679.98;106504;1274;139205;-67
2022/01/11 01:53:29;;;;;;;67.40;33.90;;;;;;;-4.66;75.84;101682.16;105889;1274;110345;-66
2022/01/11 01:56:01;;;;;;;65.80;33.20;;;;;;;-4.68;75.77;101690.89;105767;1276;141107;-65
2022/01/11 01:58:34;;;;;;;62.60;33.80;;;;;;;-4.68;75.89;101693.91;105842;1276;98024;-67
2022/01/11 02:01:07;;;;;;;66.70;33.70;;;;;;;-4.69;76.12;101693.05;105817;1276;139902;-68
2022/01/11 02:03:40;;;;;;;65.00;34.30;;;;;;;-4.67;76.04;101693.70;106090;1274;108384;-67
2022/01/11 02:06:14;;;;;;;63.50;34.20;;;;;;;-4.65;76.22;101698.69;105911;1275;108927;-67
2022/01/11 02:08:48;;;;;;;65.60;33.70;;;;;;;-4.64;76.12;101701.98;105849;1273;138781;-68
2022/01/11 02:11:22;;;;;;;64.90;34.30;;;;;;;-4.66;76.05;101699.34;105877;1276;97737;-67
2022/01/11 02:13:54;;;;;;;58.80;33.30;;;;;;;-4.68;75.89;101703.10;105701;1275;138903;-67
2022/01/11 02:16:28;;;;;;;67.20;34.90;;;;;;;-4.69;76.18;101701.50;105847;1274;108898;-67
2022/01/11 02:19:01;;;;;;;63.40;33.10;;;;;;;-4.73;76.06;101705.41;105923;1274;108769;-68
2022/01/11 02:21:34;;;;;;;64.90;34.30;;;;;;;-4.72;76.13;101706.14;106785;1274;138566;-66
2022/01/11 02:24:07;;;;;;;59.50;32.10;;;;;;;-4.72;76.12;101703.23;106799;1276;96805;-68
2022/01/11 02:26:39;;;;;;;64.60;33.60;;;;;;;-4.74;76.24;101705.13;106589;1274;140133;-67
2022/01/11 02:29:12;;;;;;;63.10;34.60;;;;;;;-4.76;76.23;101704.55;106485;1274;108929;-67
2022/01/11 02:31:44;;;;;;;64.60;33.00;;;;;;;-4.76;75.92;101713.54;106486;1274;139287;-67
2022/01/11 02:34:17;;;;;;;63.80;33.90;;;;;;;-4.77;76.12;101715.03;106438;1274;97905;-66
2022/01/11 02:37:11;;;;;;;64.30;32.40;;;;;;;-4.78;76.10;101719.02;104976;1276;97738;-67
2022/01/11 02:39:50;;;;;;;60.50;33.40;;;;;;;-4.79;76.07;101720.53;105044;1274;138368;-67
2022/01/11 02:42:32;;;;;;;61.20;32.40;;;;;;;-4.79;76.11;101723.55;105492;1274;110015;-66
2022/01/11 02:45:11;;;;;;;62.80;34.50;;;;;;;-4.79;76.08;101725.75;104992;1274;140370;-66
2022/01/11 02:47:44;;;;;;;61.30;33.00;;;;;;;-4.80;75.86;101730.14;106543;1274;97716;-67
2022/01/11 02:50:19;;;;;;;61.90;33.10;;;;;;;-4.83;75.96;101729.83;105013;1276;138543;-67
2022/01/11 02:52:52;;;;;;;60.80;32.70;;;;;;;-4.84;76.10;101731.30;105015;1276;110793;-67
2022/01/11 02:55:25;;;;;;;64.00;33.30;;;;;;;-4.85;76.02;101730.89;105084;1276;110323;-67
2022/01/11 02:57:58;;;;;;;64.80;34.30;;;;;;;-4.82;76.30;101730.55;104996;1274;139225;-67
2022/01/11 03:00:33;;;;;;;61.70;33.90;;;;;;;-4.79;76.34;101734.80;105161;1274;97862;-67
2022/01/11 03:03:17;;;;;;;62.00;32.50;;;;;;;-4.79;76.14;101738.14;104923;1276;140237;-67
2022/01/11 03:05:52;;;;;;;57.40;32.80;;;;;;;-4.83;76.11;101738.48;105051;1275;112535;-67
2022/01/11 03:08:26;;;;;;;65.60;34.60;;;;;;;-4.83;76.16;101743.89;106494;1274;138637;-68
2022/01/11 03:11:00;;;;;;;64.10;33.30;;;;;;;-4.84;76.18;101741.27;106123;1274;110875;-68
2022/01/11 03:13:35;;;;;;;65.00;34.40;;;;;;;-4.83;75.99;101740.84;105037;1274;97642;-67
2022/01/11 03:16:08;;;;;;;62.60;33.90;;;;;;;-4.84;76.21;101742.29;104924;1275;139178;-67
2022/01/11 03:18:40;;;;;;;62.30;34.60;;;;;;;-4.86;76.30;101739.64;105021;1276;111743;-67
2022/01/11 03:21:13;;;;;;;63.20;32.90;;;;;;;-4.87;76.33;101743.67;105059;1275;140629;-66
2022/01/11 03:23:45;;;;;;;69.80;34.90;;;;;;;-4.87;76.37;101745.02;105100;1276;109910;-66
2022/01/11 03:26:18;;;;;;;65.30;34.30;;;;;;;-4.86;76.37;101744.23;105081;1274;139050;-68
2022/01/11 03:28:51;;;;;;;65.20;33.60;;;;;;;-4.86;76.35;101746.13;104625;1277;97872;-68
2022/01/11 03:31:24;;;;;;;60.00;33.10;;;;;;;-4.87;75.97;101751.84;105043;1276;110925;-67
2022/01/11 03:33:56;;;;;;;58.50;33.00;;;;;;;-4.86;76.26;101752.86;104957;1275;138380;-67
2022/01/11 03:36:28;;;;;;;67.80;34.10;;;;;;;-4.86;76.41;101752.89;105000;1275;109132;-67
2022/01/11 03:39:00;;;;;;;65.60;35.00;;;;;;;-4.86;76.14;101757.12;104959;1275;138062;-67
2022/01/11 03:41:34;;;;;;;65.40;34.30;;;;;;;-4.88;76.24;101751.44;104989;1276;97849;-66
2022/01/11 03:44:08;;;;;;;66.70;35.20;;;;;;;-4.90;76.46;101749.62;106516;1275;139652;-67
2022/01/11 03:46:40;;;;;;;63.70;35.50;;;;;;;-4.91;76.48;101752.27;106595;1274;109458;-67
2022/01/11 03:49:13;;;;;;;67.80;36.00;;;;;;;-4.91;76.69;101750.92;105428;1276;107689;-67
2022/01/11 03:51:49;;;;;;;70.00;35.70;;;;;;;-4.93;76.81;101752.19;104925;1275;138743;-66
2022/01/11 03:54:26;;;;;;;69.40;37.40;;;;;;;-4.96;76.44;101751.99;105194;1275;97853;-67
2022/01/11 03:57:08;;;;;;;63.40;35.00;;;;;;;-5.00;76.54;101757.90;106517;1276;139026;-67
2022/01/11 03:59:44;;;;;;;65.20;36.60;;;;;;;-5.02;76.42;101758.80;105927;1276;108697;-67
2022/01/11 04:02:17;;;;;;;63.20;33.60;;;;;;;-5.02;76.59;101760.84;104999;1276;139064;-66
2022/01/11 04:04:53;;;;;;;64.10;34.40;;;;;;;-5.02;76.70;101764.91;105072;1276;99422;-66
2022/01/11 04:07:27;;;;;;;63.30;34.10;;;;;;;-5.03;76.77;101765.35;105290;1274;97726;-67
2022/01/11 04:10:00;;;;;;;66.80;35.90;;;;;;;-5.01;76.81;101765.80;105041;1276;138542;-67
2022/01/11 04:12:32;;;;;;;65.00;35.10;;;;;;;-5.01;76.88;101767.20;105068;1275;108977;-67
2022/01/11 04:15:05;;;;;;;67.00;35.80;;;;;;;-5.00;76.84;101769.98;104927;1275;138524;-67
2022/01/11 04:17:37;;;;;;;67.80;35.70;;;;;;;-4.99;77.04;101772.39;104977;1275;98130;-68
2022/01/11 04:20:12;;;;;;;70.70;36.10;;;;;;;-4.98;76.68;101775.14;104905;1274;138707;-67
2022/01/11 04:22:44;;;;;;;67.00;35.90;;;;;;;-5.00;77.07;101777.09;106895;1275;110383;-66
2022/01/11 04:25:16;;;;;;;73.20;36.70;;;;;;;-5.01;76.98;101781.10;106088;1276;108291;-66
2022/01/11 04:27:49;;;;;;;67.20;35.10;;;;;;;-5.03;77.10;101786.42;105974;1276;140068;-66
2022/01/11 04:30:21;;;;;;;70.00;37.20;;;;;;;-5.02;77.26;101787.14;107590;1274;96215;-67
2022/01/11 04:32:53;;;;;;;69.10;36.00;;;;;;;-5.01;77.06;101790.39;107310;1276;139736;-67
2022/01/11 04:35:25;;;;;;;66.00;34.60;;;;;;;-5.01;77.45;101794.30;107610;1274;112692;-67
2022/01/11 04:37:57;;;;;;;65.50;35.00;;;;;;;-5.02;77.12;101794.45;107445;1275;139101;-67
2022/01/11 04:40:29;;;;;;;68.00;35.30;;;;;;;-5.01;77.24;101792.45;107486;1275;108850;-67
2022/01/11 04:43:01;;;;;;;68.50;35.60;;;;;;;-4.97;77.22;101794.02;107292;1276;96213;-67
2022/01/11 04:45:33;;;;;;;65.20;34.60;;;;;;;-4.92;77.46;101797.86;107131;1275;139660;-66
2022/01/11 04:48:07;;;;;;;67.20;35.30;;;;;;;-4.88;77.41;101800.46;106297;1275;112509;-67
2022/01/11 04:50:39;;;;;;;62.80;35.50;;;;;;;-4.86;77.16;101801.24;107313;1275;138079;-66
2022/01/11 04:53:15;;;;;;;63.10;35.80;;;;;;;-4.82;77.17;101803.17;106768;1276;108766;-67
2022/01/11 04:55:47;;;;;;;69.50;36.00;;;;;;;-4.79;77.15;101802.11;106006;1275;97843;-66
2022/01/11 04:58:19;;;;;;;67.10;36.60;;;;;;;-4.76;77.41;101799.21;107307;1275;138074;-67
2022/01/11 05:00:51;;;;;;;70.50;37.60;;;;;;;-4.77;77.28;101801.38;106906;1274;112388;-66
2022/01/11 05:03:24;;;;;;;71.00;37.60;;;;;;;-4.79;77.19;101804.86;106006;1276;138341;-67
2022/01/11 05:06:00;;;;;;;67.80;36.80;;;;;;;-4.80;77.11;101805.11;105893;1274;106403;-67
2022/01/11 05:08:32;;;;;;;71.20;36.40;;;;;;;-4.82;77.27;101803.51;105834;1276;139238;-67
2022/01/11 05:11:09;;;;;;;69.80;36.90;;;;;;;-4.83;77.06;101804.10;106071;1274;98534;-67
2022/01/11 05:13:41;;;;;;;68.00;35.80;;;;;;;-4.84;77.04;101797.08;105876;1275;112209;-67
2022/01/11 05:16:26;;;;;;;67.40;34.50;;;;;;;-4.85;77.05;101798.77;105877;1274;138641;-68
2022/01/11 05:18:58;;;;;;;65.60;34.20;;;;;;;-4.86;76.95;101800.06;105918;1275;106311;-67
2022/01/11 05:21:30;;;;;;;61.20;34.40;;;;;;;-4.85;77.17;101797.55;105781;1274;139321;-67
2022/01/11 05:24:02;;;;;;;69.50;36.30;;;;;;;-4.85;76.85;101795.68;105876;1276;97938;-67
2022/01/11 05:26:34;;;;;;;73.50;38.20;;;;;;;-4.87;76.98;101795.26;105802;1275;138524;-67
2022/01/11 05:29:06;;;;;;;70.20;36.70;;;;;;;-4.88;76.83;101800.81;105971;1273;107858;-66
2022/01/11 05:31:40;;;;;;;69.20;36.40;;;;;;;-4.90;76.89;101798.67;105996;1274;108700;-67
2022/01/11 05:34:13;;;;;;;71.00;37.30;;;;;;;-4.92;76.88;101799.08;105719;1276;138683;-67
2022/01/11 05:36:46;;;;;;;67.70;36.30;;;;;;;-4.95;76.72;101800.23;105969;1276;97852;-67
2022/01/11 05:39:18;;;;;;;67.80;37.50;;;;;;;-4.98;76.99;101801.10;105808;1276;138174;-67
2022/01/11 05:41:50;;;;;;;69.60;37.00;;;;;;;-5.00;77.20;101801.52;106611;1274;108926;-67
2022/01/11 05:44:25;;;;;;;71.70;37.20;;;;;;;-5.02;76.86;101801.03;107503;1274;140688;-67
2022/01/11 05:46:57;;;;;;;68.50;37.80;;;;;;;-5.04;77.12;101805.34;107499;1274;96064;-67
2022/01/11 05:49:29;;;;;;;65.50;36.60;;;;;;;-5.04;77.40;101810.09;107242;1275;96140;-66
2022/01/11 05:52:01;;;;;;;65.60;35.40;;;;;;;-5.03;77.16;101814.36;106170;1276;138639;-68
2022/01/11 05:54:33;;;;;;;64.40;35.10;;;;;;;-5.02;77.09;101823.63;106030;1273;107703;-68
2022/01/11 05:57:06;;;;;;;62.20;35.90;;;;;;;-4.99;77.26;101824.46;106284;1276;139878;-66
2022/01/11 05:59:39;;;;;;;63.90;35.90;;;;;;;-4.92;77.59;101830.94;106160;1273;97848;-68
2022/01/11 06:02:11;;;;;;;75.40;40.30;;;;;;;-4.84;77.48;101827.13;106819;1274;138598;-67
2022/01/11 06:04:43;;;;;;;67.10;36.80;;;;;;;-4.73;77.62;101826.69;107600;1274;111951;-67
2022/01/11 06:07:15;;;;;;;71.60;38.00;;;;;;;-4.65;77.54;101827.52;107355;1276;108945;-67
2022/01/11 06:09:48;;;;;;;76.60;39.60;;;;;;;-4.55;77.93;101839.59;106403;1274;139128;-66
2022/01/11 06:12:20;;;;;;;78.40;38.40;;;;;;;-4.48;77.60;101841.49;107136;1274;96418;-67
2022/01/11 06:14:52;;;;;;;77.30;37.80;;;;;;;-4.48;77.42;101846.64;107323;1275;138109;-67
2022/01/11 06:17:24;;;;;;;74.90;39.20;;;;;;;-4.50;77.15;101851.90;107336;1277;112499;-66
2022/01/11 06:19:56;;;;;;;77.60;39.90;;;;;;;-4.52;77.05;101855.84;106781;1276;109051;-67
2022/01/11 06:22:32;;;;;;;74.80;38.40;;;;;;;-4.58;76.86;101861.00;105528;1275;138540;-67
2022/01/11 06:25:09;;;;;;;78.50;39.60;;;;;;;-4.60;77.05;101859.84;107277;1275;95926;-67
2022/01/11 06:27:42;;;;;;;76.30;38.90;;;;;;;-4.61;77.06;101867.46;106660;1275;138899;-68
2022/01/11 06:30:20;;;;;;;76.20;39.50;;;;;;;-4.58;77.02;101869.29;106088;1276;112313;-67
2022/01/11 06:32:54;;;;;;;81.10;40.40;;;;;;;-4.56;76.94;101870.11;107459;1274;139659;-67
2022/01/11 06:35:27;;;;;;;73.20;38.70;;;;;;;-4.52;76.86;101874.73;107462;1276;108765;-68
2022/01/11 06:38:00;;;;;;;76.70;37.60;;;;;;;-4.49;77.06;101881.15;107259;1274;99032;-67
2022/01/11 06:40:33;;;;;;;77.50;39.00;;;;;;;-4.45;76.98;101887.48;105900;1276;138113;-67
2022/01/11 06:43:06;;;;;;;80.20;38.60;;;;;;;-4.47;76.93;101897.61;105918;1276;112396;-67
2022/01/11 06:45:40;;;;;;;83.20;40.30;;;;;;;-4.49;76.85;101902.02;105853;1276;138263;-67
2022/01/11 06:48:13;;;;;;;86.00;40.00;;;;;;;-4.51;76.88;101907.21;106019;1276;106922;-68
2022/01/11 06:50:47;;;;;;;74.10;38.40;;;;;;;-4.60;76.40;101913.67;106385;1276;138914;-68
2022/01/11 06:53:20;;;;;;;77.80;37.90;;;;;;;-4.70;76.55;101915.64;105602;1276;98008;-69
2022/01/11 06:55:54;;;;;;;103.80;39.70;;;;;;;-4.74;76.76;101918.98;105945;1275;111292;-68
2022/01/11 06:58:27;;;;;;;81.60;39.30;;;;;;;-4.76;76.85;101918.67;105780;1276;138592;-68
2022/01/11 07:00:59;;;;;;;81.30;39.30;;;;;;;-4.84;76.58;101926.89;105934;1276;107552;-68
2022/01/11 07:03:32;;;;;;;76.70;37.00;;;;;;;-4.96;76.37;101926.54;105744;1273;139318;-67
2022/01/11 07:06:23;;;;;;;71.40;36.20;;;;;;;-5.03;76.41;101928.49;106026;1276;98508;-66
2022/01/11 07:08:55;;;;;;;74.80;37.20;;;;;;;-5.04;76.66;101935.23;107360;1276;142332;-67
2022/01/11 07:11:30;;;;;;;79.30;38.10;;;;;;;-5.02;76.50;101935.70;107360;1276;108997;-67
2022/01/11 07:17:27;;;;;;;76.70;36.80;;;;;;;-4.93;76.73;101951.65;107392;1274;95793;-67
2022/01/11 07:20:00;;;;;;;88.00;39.00;;;;;;;-4.92;76.52;101952.59;106663;1274;97868;-67
2022/01/11 07:22:33;;;;;;;87.80;40.60;;;;;;;-4.90;76.81;101953.70;105441;1276;138150;-67
2022/01/11 07:25:06;;;;;;;85.90;39.70;;;;;;;-4.95;76.40;101955.11;105785;1276;108792;-68
2022/01/11 07:27:39;;;;;;;86.50;38.70;;;;;;;-5.01;76.37;101957.84;105466;1275;138488;-67
2022/01/11 07:30:12;;;;;;;94.40;41.80;;;;;;;-5.05;76.71;101966.39;105854;1276;97971;-67
2022/01/11 07:32:49;;;;;;;91.70;41.30;;;;;;;-5.05;76.76;101970.44;105925;1275;139614;-66
2022/01/11 07:35:23;;;;;;;88.20;42.10;;;;;;;-5.06;76.87;101973.64;105752;1276;112516;-67
2022/01/11 07:37:58;;;;;;;83.10;38.80;;;;;;;-5.01;76.92;101976.97;105883;1276;108936;-68
2022/01/11 07:40:30;;;;;;;78.20;37.80;;;;;;;-4.93;77.28;101975.92;105049;1276;138959;-67
2022/01/11 07:43:08;;;;;;;69.00;32.90;;;;;;;-4.84;77.15;101974.88;105994;1274;97825;-67
2022/01/11 07:46:00;;;;;;;69.10;33.40;;;;;;;-4.75;77.09;101972.91;105316;1275;140025;-67
2022/01/11 07:48:38;;;;;;;68.90;33.60;;;;;;;-4.69;77.05;101975.95;104978;1276;111908;-68
2022/01/11 07:51:10;;;;;;;82.20;38.00;;;;;;;-4.65;76.96;101973.98;105267;1274;138245;-68
2022/01/11 07:53:43;;;;;;;85.10;39.70;;;;;;;-4.56;77.15;101971.45;105252;1276;108960;-66
2022/01/11 07:56:20;;;;;;;75.00;35.10;;;;;;;-4.47;77.36;101972.77;105067;1276;97894;-67
2022/01/11 07:58:52;;;;;;;73.70;36.70;;;;;;;-4.40;77.06;101972.70;105114;1274;137898;-67
2022/01/11 08:01:26;;;;;;;70.80;34.90;;;;;;;-4.34;77.22;101972.64;105343;1276;112554;-68
2022/01/11 08:03:59;;;;;;;73.50;34.50;;;;;;;-4.29;77.01;101971.27;105667;1276;138391;-67
2022/01/11 08:06:38;;;;;;;76.40;33.70;;;;;;;-4.25;77.09;101975.73;107109;1278;109687;-67
2022/01/11 08:09:15;;;;;;;76.60;35.40;;;;;;;-4.21;76.80;101976.77;106405;1276;138377;-67
2022/01/11 08:11:49;;;;;;;77.60;35.80;;;;;;;-4.19;77.20;101978.91;105791;1276;97862;-68
2022/01/11 08:14:22;;;;;;;70.00;33.60;;;;;;;-4.15;77.11;101980.31;105837;1276;112574;-67
2022/01/11 08:16:55;;;;;;;74.70;33.40;;;;;;;-4.11;77.27;101981.59;105723;1277;140578;-67
2022/01/11 08:19:27;;;;;;;67.70;32.50;;;;;;;-4.03;77.38;101982.86;105548;1276;107820;-66
2022/01/11 08:22:00;;;;;;;66.20;31.30;;;;;;;-3.93;77.45;101982.06;105455;1278;139199;-66
2022/01/11 08:24:39;;;;;;;67.70;32.60;;;;;;;-3.79;77.65;101983.98;105547;1279;97910;-67
2022/01/11 08:27:12;;;;;;;69.80;32.40;;;;;;;-3.64;77.17;101984.64;105562;1276;138010;-67
2022/01/11 08:29:44;;;;;;;70.50;32.80;;;;;;;-3.52;77.68;101993.44;105791;1276;108813;-69
2022/01/11 08:32:17;;;;;;;66.10;32.60;;;;;;;-3.43;77.19;101996.24;105727;1279;109370;-68
2022/01/11 08:34:50;;;;;;;66.90;32.00;;;;;;;-3.38;77.06;101991.77;105426;1276;138421;-67
2022/01/11 08:37:22;;;;;;;67.30;32.00;;;;;;;-3.33;77.12;101995.59;105680;1276;97761;-67
2022/01/11 08:39:54;;;;;;;70.60;34.30;;;;;;;-3.30;77.08;101996.09;105587;1276;138091;-68
2022/01/11 08:42:29;;;;;;;71.90;33.90;;;;;;;-3.29;76.70;101995.64;105885;1276;108954;-67
2022/01/11 08:45:01;;;;;;;74.60;33.60;;;;;;;-3.25;77.10;101999.95;105663;1278;138756;-67
2022/01/11 08:47:35;;;;;;;73.60;32.70;;;;;;;-3.25;76.81;101997.39;105799;1276;97993;-66
2022/01/11 08:50:11;;;;;;;70.70;33.90;;;;;;;-3.24;76.93;101999.66;105816;1276;97891;-67
2022/01/11 08:52:46;;;;;;;75.50;35.60;;;;;;;-3.20;77.00;102002.27;107179;1276;139737;-68
2022/01/11 08:55:23;;;;;;;71.00;32.90;;;;;;;-3.12;77.06;102004.02;106998;1277;110016;-68
2022/01/11 08:57:55;;;;;;;66.90;32.20;;;;;;;-3.02;77.07;101998.40;106654;1278;139452;-68
2022/01/11 09:00:27;;;;;;;75.10;33.70;;;;;;;-2.90;77.23;101999.34;105934;1276;97858;-66
2022/01/11 09:03:04;;;;;;;70.30;33.20;;;;;;;-2.80;76.98;102001.38;105778;1276;138256;-67
2022/01/11 09:05:41;;;;;;;69.90;34.50;;;;;;;-2.73;76.71;101999.52;106006;1276;112305;-67
2022/01/11 09:08:14;;;;;;;70.90;33.40;;;;;;;-2.64;76.47;101998.77;105889;1276;109037;-67
2022/01/11 09:10:46;;;;;;;76.60;34.90;;;;;;;-2.64;76.22;101997.94;105761;1276;138844;-67
2022/01/11 09:13:20;;;;;;;75.40;34.90;;;;;;;-2.59;76.54;101994.74;105831;1276;97928;-68
2022/01/11 09:15:52;;;;;;;67.70;33.10;;;;;;;-2.45;76.49;101996.61;105819;1276;138136;-67
2022/01/11 09:18:25;;;;;;;67.70;33.80;;;;;;;-2.31;76.39;101990.16;105292;1276;112953;-68
2022/01/11 09:21:00;;;;;;;67.20;32.10;;;;;;;-2.20;76.13;101987.61;104677;1276;139938;-68
2022/01/11 09:23:34;;;;;;;65.50;32.60;;;;;;;-2.07;75.94;101992.98;104831;1276;108932;-68
2022/01/11 09:26:07;;;;;;;67.70;33.70;;;;;;;-2.01;75.75;101989.50;104883;1276;100184;-67
2022/01/11 09:28:48;;;;;;;69.60;34.40;;;;;;;-1.87;75.98;101991.04;104638;1276;138059;-68
2022/01/11 09:31:20;;;;;;;73.80;34.80;;;;;;;-1.74;75.77;101992.48;104964;1276;112501;-68
2022/01/11 09:33:52;;;;;;;68.70;32.40;;;;;;;-1.65;75.30;101992.21;104574;1276;139063;-67
2022/01/11 09:36:25;;;;;;;66.80;33.20;;;;;;;-1.59;75.35;101991.84;104747;1276;109079;-68
2022/01/11 09:38:57;;;;;;;70.60;34.10;;;;;;;-1.57;74.89;101989.33;104650;1276;139123;-69
2022/01/11 09:41:30;;;;;;;65.80;32.60;;;;;;;-1.51;74.65;101987.05;104788;1277;97852;-67
2022/01/11 09:44:05;;;;;;;70.50;34.10;;;;;;;-1.41;74.37;101982.52;105045;1276;112202;-67
2022/01/11 09:46:39;;;;;;;68.50;33.40;;;;;;;-1.23;74.44;101987.43;104915;1276;138245;-66
2022/01/11 09:49:11;;;;;;;67.30;34.10;;;;;;;-1.06;74.15;101981.48;104985;1276;109348;-67
2022/01/11 09:51:45;;;;;;;75.30;35.60;;;;;;;-0.99;73.61;101985.23;104755;1276;139745;-68
2022/01/11 09:54:21;;;;;;;70.20;34.40;;;;;;;-0.89;74.11;101985.15;104953;1276;97892;-67
2022/01/11 09:56:53;;;;;;;75.30;36.50;;;;;;;-0.68;73.80;101980.71;104909;1276;112307;-67
2022/01/11 09:59:26;;;;;;;66.00;34.00;;;;;;;-0.51;73.73;101976.61;104903;1276;137890;-67
2022/01/11 10:02:18;;;;;;;66.70;34.10;;;;;;;-0.41;73.12;101977.56;104993;1276;107628;-69
2022/01/11 10:05:10;;;;;;;63.60;33.90;;;;;;;-0.28;73.00;101978.73;104806;1276;139948;-69
2022/01/11 10:07:50;;;;;;;66.00;33.90;;;;;;;-0.20;72.98;101982.84;106358;1276;96786;-69
2022/01/11 10:10:23;;;;;;;61.60;33.70;;;;;;;-0.14;72.99;101983.75;105886;1278;139837;-70
2022/01/11 10:13:03;;;;;;;65.90;36.20;;;;;;;-0.05;72.99;101983.92;105583;1276;108051;-68
2022/01/11 10:15:39;;;;;;;65.70;33.80;;;;;;;-0.01;72.49;101982.71;105906;1276;138341;-69
2022/01/11 10:18:37;;;;;;;61.80;33.00;;;;;;;-0.04;72.15;101982.41;105809;1276;97825;-68
2022/01/11 10:21:34;;;;;;;65.60;33.30;;;;;;;-0.09;72.12;101987.03;105693;1276;138820;-67
2022/01/11 10:24:24;;;;;;;65.60;32.80;;;;;;;-0.17;72.03;101985.18;107134;1276;112561;-68
2022/01/11 10:26:58;;;;;;;61.50;32.30;;;;;;;-0.28;71.89;101987.64;105836;1276;107814;-71
2022/01/11 10:29:35;;;;;;;64.80;33.70;;;;;;;-0.40;71.65;101988.84;105852;1276;137902;-69
2022/01/11 10:32:19;;;;;;;66.60;33.00;;;;;;;-0.50;71.86;101987.08;105806;1276;97839;-70
2022/01/11 10:34:55;;;;;;;66.60;33.90;;;;;;;-0.61;71.89;101989.88;105475;1276;137888;-68
2022/01/11 10:37:34;;;;;;;59.50;31.40;;;;;;;-0.69;71.74;101993.16;107278;1276;112679;-68
2022/01/11 10:40:16;;;;;;;59.00;30.70;;;;;;;-0.72;72.08;101993.35;106556;1276;139655;-69
2022/01/11 10:42:50;;;;;;;58.50;29.90;;;;;;;-0.73;72.32;101992.44;106555;1276;108938;-69
2022/01/11 10:45:24;;;;;;;56.90;30.10;;;;;;;-0.74;72.11;101994.13;105557;1276;140250;-69
2022/01/11 10:47:58;;;;;;;59.60;30.00;;;;;;;-0.73;72.24;101993.64;105708;1276;97886;-69
2022/01/11 10:50:34;;;;;;;57.20;30.20;;;;;;;-0.73;72.29;101995.17;105971;1276;112472;-70
2022/01/11 10:53:13;;;;;;;63.60;32.70;;;;;;;-0.75;72.12;101991.35;107183;1276;138685;-69
2022/01/11 10:55:48;;;;;;;66.30;32.90;;;;;;;-0.80;72.06;101992.52;105858;1276;108797;-69
2022/01/11 10:59:03;;;;;;;60.20;32.50;;;;;;;-0.90;71.92;101995.33;106121;1274;139786;-69
2022/01/11 11:01:38;;;;;;;69.90;34.70;;;;;;;-1.01;72.24;102000.87;107329;1276;96100;-69
2022/01/11 11:04:34;;;;;;;74.90;36.70;;;;;;;-1.10;71.99;102002.16;107327;1276;138208;-69
2022/01/11 11:07:14;;;;;;;74.10;35.90;;;;;;;-1.18;72.38;102003.51;107388;1277;106901;-69
2022/01/11 11:09:58;;;;;;;75.50;36.90;;;;;;;-1.26;72.57;102005.06;107263;1276;138796;-69
2022/01/11 11:12:30;;;;;;;73.20;37.00;;;;;;;-1.28;72.67;102005.13;106225;1277;97902;-69
2022/01/11 11:15:06;;;;;;;72.00;35.60;;;;;;;-1.29;72.44;102006.09;105216;1276;97859;-68
2022/01/11 11:17:43;;;;;;;61.60;32.70;;;;;;;-1.28;72.51;102003.94;106861;1276;137726;-68
2022/01/11 11:20:27;;;;;;;66.10;32.60;;;;;;;-1.29;72.86;102004.56;106212;1276;108962;-68
2022/01/11 11:23:00;;;;;;;65.20;31.30;;;;;;;-1.28;72.86;102008.21;105514;1278;139003;-69
2022/01/11 11:25:32;;;;;;;60.40;32.10;;;;;;;-1.22;72.67;102007.44;106985;1277;96254;-69
2022/01/11 11:28:05;;;;;;;58.10;31.40;;;;;;;-1.16;72.87;102004.42;106428;1276;138415;-68
2022/01/11 11:30:37;;;;;;;56.40;30.20;;;;;;;-1.15;73.02;102007.05;105883;1276;112714;-69
2022/01/11 11:33:11;;;;;;;62.40;31.30;;;;;;;-1.10;72.73;102005.19;105552;1276;107714;-70